Time;durP1;ratioP1;P1;durP2;ratioP2;P2;SDS_P1;SDS_P2;PMS_P1;PMS_P2;Temp;Humidity;BMP_temperature;BMP_pressure;BME280_temperature;BME280_humidity;BME280_pressure;Samples;Min_cycle;Max_cycle;Signal;HPM_P1;HPM_P2
2022/07/02 00:00:35;;;;;;;;;;;;;;;;;;5112449;28;1030;-68
2022/07/02 00:03:01;;;;;;;;;;;;;;;;;;5112690;27;903;-67
2022/07/02 00:05:27;;;;;;;;;;;;;;;;;;5112281;28;1890;-67
2022/07/02 00:07:52;;;;;;;;;;;;;;;;;;5112575;28;908;-67
2022/07/02 00:10:18;;;;;;;;;;;;;;;;;;5110193;27;1195;-67
2022/07/02 00:12:44;;;;;;;;;;;;;;;;;;5109910;27;1305;-68
2022/07/02 00:15:10;;;;;;;;;;;;;;;;;;5111514;27;1258;-68
2022/07/02 00:17:36;;;;;;;;;;;;;;;;;;5121550;27;1154;-68
2022/07/02 00:20:02;;;;;;;;;;;;;;;;;;5130730;27;1151;-68
2022/07/02 00:22:27;;;;;;;;;;;;;;;;;;5132817;27;1159;-68
2022/07/02 00:24:52;;;;;;;;;;;;;;;;;;5133990;27;1955;-67
2022/07/02 00:27:18;;;;;;;;;;;;;;;;;;5132494;27;954;-68
2022/07/02 00:29:56;;;;;;;;;;;;;;;;;;5133652;27;1079;-68
2022/07/02 00:32:22;;;;;;;;;;;;;;;;;;5132736;27;985;-67
2022/07/02 00:34:48;;;;;;;;;;;;;;;;;;5133674;27;895;-67
2022/07/02 00:37:14;;;;;;;;;;;;;;;;;;5132739;27;1083;-67
2022/07/02 00:39:39;;;;;;;;;;;;;;;;;;5132975;27;958;-67
2022/07/02 00:42:05;;;;;;;;;;;;;;;;;;5133060;27;922;-67
2022/07/02 00:44:31;;;;;;;;;;;;;;;;;;5132648;27;1951;-67
2022/07/02 00:46:58;;;;;;;;;;;;;;;;;;5131535;27;1563;-67
2022/07/02 00:49:24;;;;;;;;;;;;;;;;;;5132964;27;1002;-67
2022/07/02 00:51:49;;;;;;;;;;;;;;;;;;5133027;27;832;-67
2022/07/02 00:54:14;;;;;;;;;;;;;;;;;;5132953;27;939;-67
2022/07/02 00:56:40;;;;;;;;;;;;;;;;;;5133002;27;1007;-67
2022/07/02 00:59:05;;;;;;;;;;;;;;;;;;5131721;27;991;-67
2022/07/02 01:01:30;;;;;;;;;;;;;;;;;;5130744;27;934;-67
2022/07/02 01:03:57;;;;;;;;;;;;;;;;;;5132955;27;1889;-67
2022/07/02 01:06:23;;;;;;;;;;;;;;;;;;5132157;27;966;-67
2022/07/02 01:11:34;;;;;;;;;;;;;;;;;;5132639;27;626;-67
2022/07/02 01:14:02;;;;;;;;;;;;;;;;;;5133646;27;994;-67
2022/07/02 01:16:27;;;;;;;;;;;;;;;;;;5132996;27;890;-67
2022/07/02 01:18:52;;;;;;;;;;;;;;;;;;5133544;27;907;-67
2022/07/02 01:21:17;;;;;;;;;;;;;;;;;;5132726;27;820;-67
2022/07/02 01:23:42;;;;;;;;;;;;;;;;;;5133653;27;1874;-68
2022/07/02 01:26:08;;;;;;;;;;;;;;;;;;5133801;27;954;-67
2022/07/02 01:28:33;;;;;;;;;;;;;;;;;;5131217;27;993;-67
2022/07/02 01:30:58;;;;;;;;;;;;;;;;;;5133316;27;990;-67
2022/07/02 01:33:24;;;;;;;;;;;;;;;;;;5132260;28;892;-67
2022/07/02 01:35:49;;;;;;;;;;;;;;;;;;5133270;27;1123;-67
2022/07/02 01:38:14;;;;;;;;;;;;;;;;;;5131772;27;968;-67
2022/07/02 01:40:39;;;;;;;;;;;;;;;;;;5136515;27;879;-67
2022/07/02 01:43:05;;;;;;;;;;;;;;;;;;5136617;27;892;-68
2022/07/02 01:45:30;;;;;;;;;;;;;;;;;;5136250;27;1959;-67
2022/07/02 01:47:55;;;;;;;;;;;;;;;;;;5135205;27;948;-67
2022/07/02 01:50:20;;;;;;;;;;;;;;;;;;5136718;27;899;-67
2022/07/02 01:52:45;;;;;;;;;;;;;;;;;;5137322;27;887;-67
2022/07/02 01:55:11;;;;;;;;;;;;;;;;;;5137242;27;915;-68
2022/07/02 01:57:36;;;;;;;;;;;;;;;;;;5135401;27;1642;-67
2022/07/02 02:00:06;;;;;;;;;;;;;;;;;;5137163;27;835;-67
2022/07/02 02:02:31;;;;;;;;;;;;;;;;;;5136014;27;1027;-67
2022/07/02 02:04:56;;;;;;;;;;;;;;;;;;5136852;27;1961;-67
2022/07/02 02:07:22;;;;;;;;;;;;;;;;;;5136188;27;849;-67
2022/07/02 02:09:47;;;;;;;;;;;;;;;;;;5137228;27;946;-67
2022/07/02 02:12:12;;;;;;;;;;;;;;;;;;5136709;27;1096;-68
2022/07/02 02:14:37;;;;;;;;;;;;;;;;;;5136252;27;780;-68
2022/07/02 02:17:03;;;;;;;;;;;;;;;;;;5136452;27;891;-67
2022/07/02 02:19:28;;;;;;;;;;;;;;;;;;5135482;27;882;-67
2022/07/02 02:21:53;;;;;;;;;;;;;;;;;;5135902;27;899;-67
2022/07/02 02:24:18;;;;;;;;;;;;;;;;;;5135523;27;1910;-67
2022/07/02 02:26:44;;;;;;;;;;;;;;;;;;5135730;27;784;-67
2022/07/02 02:29:09;;;;;;;;;;;;;;;;;;5135787;27;875;-67
2022/07/02 02:31:34;;;;;;;;;;;;;;;;;;5135017;27;887;-68
2022/07/02 02:34:00;;;;;;;;;;;;;;;;;;5136184;27;855;-68
2022/07/02 02:36:25;;;;;;;;;;;;;;;;;;5134865;27;1060;-68
2022/07/02 02:38:50;;;;;;;;;;;;;;;;;;5135715;27;871;-67
2022/07/02 02:41:16;;;;;;;;;;;;;;;;;;5135418;27;1062;-67
2022/07/02 02:43:41;;;;;;;;;;;;;;;;;;5135172;27;1921;-67
2022/07/02 02:46:06;;;;;;;;;;;;;;;;;;5134193;27;1350;-67
2022/07/02 02:48:33;;;;;;;;;;;;;;;;;;5134852;27;934;-67
2022/07/02 02:50:58;;;;;;;;;;;;;;;;;;5134495;27;1054;-68
2022/07/02 02:53:24;;;;;;;;;;;;;;;;;;5134663;27;903;-67
2022/07/02 02:55:49;;;;;;;;;;;;;;;;;;5135846;27;950;-67
2022/07/02 02:58:15;;;;;;;;;;;;;;;;;;5135428;27;812;-67
2022/07/02 03:00:40;;;;;;;;;;;;;;;;;;5135053;27;954;-68
2022/07/02 03:03:05;;;;;;;;;;;;;;;;;;5136220;27;773;-68
2022/07/02 03:05:31;;;;;;;;;;;;;;;;;;5135494;27;1894;-67
2022/07/02 03:07:56;;;;;;;;;;;;;;;;;;5134723;27;855;-67
2022/07/02 03:10:21;;;;;;;;;;;;;;;;;;5134900;27;918;-67
2022/07/02 03:12:47;;;;;;;;;;;;;;;;;;5135488;27;939;-67
2022/07/02 03:15:13;;;;;;;;;;;;;;;;;;5135691;27;891;-67
2022/07/02 03:17:38;;;;;;;;;;;;;;;;;;5135599;27;932;-68
2022/07/02 03:20:03;;;;;;;;;;;;;;;;;;5134895;27;843;-67
2022/07/02 03:22:29;;;;;;;;;;;;;;;;;;5134238;27;1065;-67
2022/07/02 03:24:54;;;;;;;;;;;;;;;;;;5134819;27;1909;-67
2022/07/02 03:27:20;;;;;;;;;;;;;;;;;;5134645;27;899;-67
2022/07/02 03:29:46;;;;;;;;;;;;;;;;;;5134827;27;1062;-67
2022/07/02 03:32:11;;;;;;;;;;;;;;;;;;5134462;27;923;-67
2022/07/02 03:34:36;;;;;;;;;;;;;;;;;;5133741;27;821;-67
2022/07/02 03:37:02;;;;;;;;;;;;;;;;;;5133852;27;1383;-67
2022/07/02 03:39:28;;;;;;;;;;;;;;;;;;5133890;27;875;-68
2022/07/02 03:41:54;;;;;;;;;;;;;;;;;;5134448;27;900;-68
2022/07/02 03:44:19;;;;;;;;;;;;;;;;;;5134583;27;1878;-67
2022/07/02 03:46:44;;;;;;;;;;;;;;;;;;5133839;27;927;-67
2022/07/02 03:49:09;;;;;;;;;;;;;;;;;;5134344;27;995;-67
2022/07/02 03:51:35;;;;;;;;;;;;;;;;;;5133633;27;876;-67
2022/07/02 03:54:00;;;;;;;;;;;;;;;;;;5134347;27;1022;-68
2022/07/02 03:56:25;;;;;;;;;;;;;;;;;;5133796;27;939;-67
2022/07/02 03:58:50;;;;;;;;;;;;;;;;;;5134155;27;836;-67
2022/07/02 04:01:16;;;;;;;;;;;;;;;;;;5132850;27;907;-68
2022/07/02 04:03:41;;;;;;;;;;;;;;;;;;5133669;27;1930;-68
2022/07/02 04:06:06;;;;;;;;;;;;;;;;;;5115959;27;1261;-67
2022/07/02 04:08:32;;;;;;;;;;;;;;;;;;5132658;27;1041;-68
2022/07/02 04:10:57;;;;;;;;;;;;;;;;;;5133189;27;839;-67
2022/07/02 04:13:22;;;;;;;;;;;;;;;;;;5133391;27;891;-67
2022/07/02 04:15:47;;;;;;;;;;;;;;;;;;5134128;27;1050;-68
2022/07/02 04:18:13;;;;;;;;;;;;;;;;;;5134089;27;898;-67
2022/07/02 04:20:38;;;;;;;;;;;;;;;;;;5133417;27;769;-67
2022/07/02 04:23:03;;;;;;;;;;;;;;;;;;5133738;27;840;-67
2022/07/02 04:25:29;;;;;;;;;;;;;;;;;;5133132;27;1897;-68
2022/07/02 04:27:54;;;;;;;;;;;;;;;;;;5115215;27;1222;-67
2022/07/02 04:30:19;;;;;;;;;;;;;;;;;;5133504;27;899;-67
2022/07/02 04:32:45;;;;;;;;;;;;;;;;;;5132972;27;986;-67
2022/07/02 04:35:10;;;;;;;;;;;;;;;;;;5134104;27;900;-67
2022/07/02 04:37:35;;;;;;;;;;;;;;;;;;5132680;27;1653;-67
2022/07/02 04:40:00;;;;;;;;;;;;;;;;;;5133816;27;820;-67
2022/07/02 04:42:26;;;;;;;;;;;;;;;;;;5133646;27;848;-67
2022/07/02 04:44:51;;;;;;;;;;;;;;;;;;5133813;27;1905;-67
2022/07/02 04:47:16;;;;;;;;;;;;;;;;;;5133944;27;1046;-67
2022/07/02 04:49:41;;;;;;;;;;;;;;;;;;5133733;27;994;-68
2022/07/02 04:52:07;;;;;;;;;;;;;;;;;;5134146;27;899;-67
2022/07/02 04:54:32;;;;;;;;;;;;;;;;;;5133282;27;872;-67
2022/07/02 04:56:57;;;;;;;;;;;;;;;;;;5133720;27;978;-67
2022/07/02 04:59:22;;;;;;;;;;;;;;;;;;5133072;27;946;-68
2022/07/02 05:01:48;;;;;;;;;;;;;;;;;;5132688;27;812;-67
2022/07/02 05:04:13;;;;;;;;;;;;;;;;;;5132831;27;1952;-67
2022/07/02 05:06:39;;;;;;;;;;;;;;;;;;5131331;27;1080;-67
2022/07/02 05:09:04;;;;;;;;;;;;;;;;;;5131392;27;967;-68
2022/07/02 05:11:29;;;;;;;;;;;;;;;;;;5131050;27;1278;-68
2022/07/02 05:13:55;;;;;;;;;;;;;;;;;;5131881;27;1002;-67
2022/07/02 05:16:20;;;;;;;;;;;;;;;;;;5133006;27;978;-68
2022/07/02 05:18:45;;;;;;;;;;;;;;;;;;5132073;27;880;-68
2022/07/02 05:21:10;;;;;;;;;;;;;;;;;;5132837;27;840;-68
2022/07/02 05:23:36;;;;;;;;;;;;;;;;;;5132021;27;1910;-67
2022/07/02 05:26:01;;;;;;;;;;;;;;;;;;5132796;27;943;-67
2022/07/02 05:28:26;;;;;;;;;;;;;;;;;;5131907;27;1081;-68
2022/07/02 05:30:51;;;;;;;;;;;;;;;;;;5132762;27;911;-67
2022/07/02 05:33:20;;;;;;;;;;;;;;;;;;5132613;27;840;-67
2022/07/02 05:35:45;;;;;;;;;;;;;;;;;;5131824;27;1271;-67
2022/07/02 05:38:11;;;;;;;;;;;;;;;;;;5132881;27;848;-67
2022/07/02 05:40:37;;;;;;;;;;;;;;;;;;5132913;27;844;-67
2022/07/02 05:43:02;;;;;;;;;;;;;;;;;;5131104;27;1279;-67
2022/07/02 05:45:28;;;;;;;;;;;;;;;;;;5132577;28;1913;-67
2022/07/02 05:47:53;;;;;;;;;;;;;;;;;;5131666;27;891;-67
2022/07/02 05:50:19;;;;;;;;;;;;;;;;;;5132516;27;946;-67
2022/07/02 05:52:44;;;;;;;;;;;;;;;;;;5131826;27;876;-67
2022/07/02 05:55:10;;;;;;;;;;;;;;;;;;5133035;27;835;-67
2022/07/02 05:57:36;;;;;;;;;;;;;;;;;;5131987;27;974;-67
2022/07/02 06:00:03;;;;;;;;;;;;;;;;;;5132441;27;835;-67
2022/07/02 06:02:28;;;;;;;;;;;;;;;;;;5132101;27;922;-67
2022/07/02 06:04:53;;;;;;;;;;;;;;;;;;5132042;28;1909;-67
2022/07/02 06:10:03;;;;;;;;;;;;;;;;;;5132213;27;645;-67
2022/07/02 06:12:28;;;;;;;;;;;;;;;;;;5131715;27;816;-67
2022/07/02 06:14:53;;;;;;;;;;;;;;;;;;5131882;28;923;-67
2022/07/02 06:17:19;;;;;;;;;;;;;;;;;;5132499;28;915;-67
2022/07/02 06:19:47;;;;;;;;;;;;;;;;;;5131207;27;847;-67
2022/07/02 06:22:12;;;;;;;;;;;;;;;;;;5132223;27;831;-66
2022/07/02 06:24:37;;;;;;;;;;;;;;;;;;5131652;27;1972;-66
2022/07/02 06:27:03;;;;;;;;;;;;;;;;;;5134713;27;935;-67
2022/07/02 06:29:28;;;;;;;;;;;;;;;;;;5136436;27;925;-66
2022/07/02 06:31:53;;;;;;;;;;;;;;;;;;5136620;27;859;-67
2022/07/02 06:34:19;;;;;;;;;;;;;;;;;;5135811;27;746;-66
2022/07/02 06:36:45;;;;;;;;;;;;;;;;;;5136031;27;1049;-66
2022/07/02 06:39:10;;;;;;;;;;;;;;;;;;5136662;27;1026;-67
2022/07/02 06:44:19;;;;;;;;;;;;;;;;;;5136092;27;1905;-68
2022/07/02 06:46:44;;;;;;;;;;;;;;;;;;5134728;27;954;-68
2022/07/02 06:49:10;;;;;;;;;;;;;;;;;;5136499;27;895;-68
2022/07/02 06:51:35;;;;;;;;;;;;;;;;;;5134429;27;855;-68
2022/07/02 06:54:00;;;;;;;;;;;;;;;;;;5135887;27;951;-68
2022/07/02 06:56:29;;;;;;;;;;;;;;;;;;5134836;27;884;-68
2022/07/02 06:58:54;;;;;;;;;;;;;;;;;;5135330;27;975;-68
2022/07/02 07:01:20;;;;;;;;;;;;;;;;;;5134951;27;849;-68
2022/07/02 07:03:45;;;;;;;;;;;;;;;;;;5135109;27;1901;-68
2022/07/02 07:06:11;;;;;;;;;;;;;;;;;;5134987;27;821;-68
2022/07/02 07:08:36;;;;;;;;;;;;;;;;;;5134821;27;877;-68
2022/07/02 07:11:02;;;;;;;;;;;;;;;;;;5135426;27;994;-68
2022/07/02 07:13:27;;;;;;;;;;;;;;;;;;5133390;27;670;-68
2022/07/02 07:15:52;;;;;;;;;;;;;;;;;;5133984;27;821;-68
2022/07/02 07:18:17;;;;;;;;;;;;;;;;;;5133576;27;809;-68
2022/07/02 07:20:43;;;;;;;;;;;;;;;;;;5135061;27;848;-68
2022/07/02 07:23:08;;;;;;;;;;;;;;;;;;5134908;27;982;-68
2022/07/02 07:25:33;;;;;;;;;;;;;;;;;;5134760;27;1907;-66
2022/07/02 07:27:58;;;;;;;;;;;;;;;;;;5134710;27;950;-66
2022/07/02 07:30:24;;;;;;;;;;;;;;;;;;5134535;27;1030;-67
2022/07/02 07:32:49;;;;;;;;;;;;;;;;;;5134565;27;911;-67
2022/07/02 07:35:14;;;;;;;;;;;;;;;;;;5133112;27;912;-66
2022/07/02 07:37:39;;;;;;;;;;;;;;;;;;5133810;27;1135;-67
2022/07/02 07:40:05;;;;;;;;;;;;;;;;;;5134352;27;894;-67
2022/07/02 07:42:31;;;;;;;;;;;;;;;;;;5132738;27;1433;-67
2022/07/02 07:44:57;;;;;;;;;;;;;;;;;;5134198;27;1971;-67
2022/07/02 07:47:22;;;;;;;;;;;;;;;;;;5134368;27;936;-68
2022/07/02 07:49:47;;;;;;;;;;;;;;;;;;5134028;27;1002;-67
2022/07/02 07:52:12;;;;;;;;;;;;;;;;;;5134312;27;832;-68
2022/07/02 07:54:38;;;;;;;;;;;;;;;;;;5133631;27;1192;-68
2022/07/02 07:57:03;;;;;;;;;;;;;;;;;;5135128;27;922;-67
2022/07/02 07:59:29;;;;;;;;;;;;;;;;;;5132980;27;1444;-67
2022/07/02 08:01:54;;;;;;;;;;;;;;;;;;5135016;27;927;-67
2022/07/02 08:04:19;;;;;;;;;;;;;;;;;;5134391;27;1906;-67
2022/07/02 08:06:45;;;;;;;;;;;;;;;;;;5133885;27;955;-67
2022/07/02 08:09:10;;;;;;;;;;;;;;;;;;5135267;27;908;-67
2022/07/02 08:11:35;;;;;;;;;;;;;;;;;;5133503;27;1092;-68
2022/07/02 08:14:01;;;;;;;;;;;;;;;;;;5135111;27;899;-68
2022/07/02 08:16:26;;;;;;;;;;;;;;;;;;5135005;27;836;-68
2022/07/02 08:18:51;;;;;;;;;;;;;;;;;;5135869;27;840;-67
2022/07/02 08:21:17;;;;;;;;;;;;;;;;;;5134990;27;907;-68
2022/07/02 08:23:42;;;;;;;;;;;;;;;;;;5132763;27;1985;-68
2022/07/02 08:26:07;;;;;;;;;;;;;;;;;;5134575;27;821;-67
2022/07/02 08:28:33;;;;;;;;;;;;;;;;;;5134382;27;1006;-67
2022/07/02 08:30:58;;;;;;;;;;;;;;;;;;5134322;27;840;-67
2022/07/02 08:33:23;;;;;;;;;;;;;;;;;;5132293;27;1257;-67
2022/07/02 08:35:49;;;;;;;;;;;;;;;;;;5133208;27;1052;-67
2022/07/02 08:38:14;;;;;;;;;;;;;;;;;;5133007;27;927;-66
2022/07/02 08:40:43;;;;;;;;;;;;;;;;;;5133225;27;831;-66
2022/07/02 08:43:10;;;;;;;;;;;;;;;;;;5131631;27;883;-68
2022/07/02 08:45:36;;;;;;;;;;;;;;;;;;5132898;27;1910;-69
2022/07/02 08:48:01;;;;;;;;;;;;;;;;;;5131506;27;1585;-67
2022/07/02 08:50:27;;;;;;;;;;;;;;;;;;5132619;27;911;-66
2022/07/02 08:52:52;;;;;;;;;;;;;;;;;;5133315;27;919;-66
2022/07/02 08:55:18;;;;;;;;;;;;;;;;;;5133341;27;883;-67
2022/07/02 08:57:45;;;;;;;;;;;;;;;;;;5131386;27;864;-67
2022/07/02 09:00:10;;;;;;;;;;;;;;;;;;5132713;27;950;-69
2022/07/02 09:02:36;;;;;;;;;;;;;;;;;;5131221;27;1185;-68
2022/07/02 09:05:02;;;;;;;;;;;;;;;;;;5131388;27;1965;-69
2022/07/02 09:07:28;;;;;;;;;;;;;;;;;;5132136;27;1077;-69
2022/07/02 09:09:54;;;;;;;;;;;;;;;;;;5133145;27;986;-66
2022/07/02 09:12:19;;;;;;;;;;;;;;;;;;5132439;27;832;-66
2022/07/02 09:14:44;;;;;;;;;;;;;;;;;;5132201;27;983;-69
2022/07/02 09:17:10;;;;;;;;;;;;;;;;;;5132564;27;1002;-69
2022/07/02 09:19:36;;;;;;;;;;;;;;;;;;5130697;27;1138;-66
2022/07/02 09:22:02;;;;;;;;;;;;;;;;;;5132831;27;785;-69
2022/07/02 09:24:31;;;;;;;;;;;;;;;;;;5131712;27;1901;-66
2022/07/02 09:27:04;;;;;;;;;;;;;;;;;;5132455;27;931;-66
2022/07/02 09:29:39;;;;;;;;;;;;;;;;;;5131469;27;959;-68
2022/07/02 09:32:04;;;;;;;;;;;;;;;;;;5132003;27;894;-66
2022/07/02 09:34:30;;;;;;;;;;;;;;;;;;5131313;27;832;-67
2022/07/02 09:36:55;;;;;;;;;;;;;;;;;;5132137;27;1068;-66
2022/07/02 09:39:30;;;;;;;;;;;;;;;;;;5132182;28;919;-68
2022/07/02 09:41:56;;;;;;;;;;;;;;;;;;5130968;27;1189;-67
2022/07/02 09:44:21;;;;;;;;;;;;;;;;;;5131604;27;1913;-67
2022/07/02 09:46:46;;;;;;;;;;;;;;;;;;5132747;28;891;-68
2022/07/02 09:49:12;;;;;;;;;;;;;;;;;;5133234;27;844;-67
2022/07/02 09:51:45;;;;;;;;;;;;;;;;;;5132502;27;1173;-67
2022/07/02 09:54:16;;;;;;;;;;;;;;;;;;5132082;28;876;-67
2022/07/02 09:56:49;;;;;;;;;;;;;;;;;;5132836;27;852;-67
2022/07/02 09:59:14;;;;;;;;;;;;;;;;;;5132930;27;994;-68
2022/07/02 10:01:42;;;;;;;;;;;;;;;;;;5136986;27;863;-67
2022/07/02 10:04:07;;;;;;;;;;;;;;;;;;5135806;27;1913;-66
2022/07/02 10:06:33;;;;;;;;;;;;;;;;;;5136500;27;1061;-67
2022/07/02 10:08:58;;;;;;;;;;;;;;;;;;5136248;27;986;-67
2022/07/02 10:11:25;;;;;;;;;;;;;;;;;;5135903;27;1002;-66
2022/07/02 10:13:50;;;;;;;;;;;;;;;;;;5135696;27;837;-66
2022/07/02 10:16:17;;;;;;;;;;;;;;;;;;5134552;27;880;-66
2022/07/02 10:18:43;;;;;;;;;;;;;;;;;;5135495;27;927;-67
2022/07/02 10:21:11;;;;;;;;;;;;;;;;;;5135751;27;891;-67
2022/07/02 10:23:37;;;;;;;;;;;;;;;;;;5133878;27;887;-67
2022/07/02 10:26:03;;;;;;;;;;;;;;;;;;5136095;27;1909;-67
2022/07/02 10:28:28;;;;;;;;;;;;;;;;;;5135001;27;994;-67
2022/07/02 10:30:54;;;;;;;;;;;;;;;;;;5135706;27;911;-67
2022/07/02 10:33:22;;;;;;;;;;;;;;;;;;5136212;27;867;-66
2022/07/02 10:35:48;;;;;;;;;;;;;;;;;;5134892;27;1193;-67
2022/07/02 10:38:13;;;;;;;;;;;;;;;;;;5135796;27;765;-67
2022/07/02 10:40:48;;;;;;;;;;;;;;;;;;5135110;27;1054;-67
2022/07/02 10:43:18;;;;;;;;;;;;;;;;;;5135983;27;1022;-67
2022/07/02 10:45:43;;;;;;;;;;;;;;;;;;5135022;27;1980;-67
2022/07/02 10:48:11;;;;;;;;;;;;;;;;;;5134153;27;856;-67
2022/07/02 10:50:39;;;;;;;;;;;;;;;;;;5134732;27;876;-67
2022/07/02 10:53:13;;;;;;;;;;;;;;;;;;5135549;27;887;-67
2022/07/02 10:55:39;;;;;;;;;;;;;;;;;;5134835;27;835;-67
2022/07/02 10:58:07;;;;;;;;;;;;;;;;;;5135309;27;1006;-67
2022/07/02 11:00:34;;;;;;;;;;;;;;;;;;5134420;27;901;-67
2022/07/02 11:03:10;;;;;;;;;;;;;;;;;;5134992;27;598;-67
2022/07/02 11:05:47;;;;;;;;;;;;;;;;;;5134451;27;1944;-67
2022/07/02 11:08:32;;;;;;;;;;;;;;;;;;5135120;27;962;-67
2022/07/02 11:10:58;;;;;;;;;;;;;;;;;;5134817;27;1411;-67
2022/07/02 11:13:31;;;;;;;;;;;;;;;;;;5134091;27;745;-67
2022/07/02 11:15:56;;;;;;;;;;;;;;;;;;5135164;27;872;-67
2022/07/02 11:18:21;;;;;;;;;;;;;;;;;;5134532;27;899;-67
2022/07/02 11:20:47;;;;;;;;;;;;;;;;;;5134033;27;896;-67
2022/07/02 11:23:12;;;;;;;;;;;;;;;;;;5134511;27;915;-67
2022/07/02 11:25:38;;;;;;;;;;;;;;;;;;5132310;27;1906;-67
2022/07/02 11:28:04;;;;;;;;;;;;;;;;;;5134385;27;934;-67
2022/07/02 11:30:31;;;;;;;;;;;;;;;;;;5134074;27;962;-67
2022/07/02 11:32:56;;;;;;;;;;;;;;;;;;5134720;27;906;-67
2022/07/02 11:35:22;;;;;;;;;;;;;;;;;;5134802;27;1213;-67
2022/07/02 11:37:47;;;;;;;;;;;;;;;;;;5133439;27;1158;-67
2022/07/02 11:40:20;;;;;;;;;;;;;;;;;;5134773;27;986;-67
2022/07/02 11:42:45;;;;;;;;;;;;;;;;;;5133856;27;888;-67
2022/07/02 11:45:11;;;;;;;;;;;;;;;;;;5135164;27;1983;-67
2022/07/02 11:47:46;;;;;;;;;;;;;;;;;;5134540;27;919;-67
2022/07/02 11:50:12;;;;;;;;;;;;;;;;;;5135140;27;943;-67
2022/07/02 11:52:38;;;;;;;;;;;;;;;;;;5134506;27;847;-67
2022/07/02 11:55:04;;;;;;;;;;;;;;;;;;5134122;27;973;-67
2022/07/02 11:57:33;;;;;;;;;;;;;;;;;;5133303;27;1134;-67
2022/07/02 11:59:58;;;;;;;;;;;;;;;;;;5134380;27;805;-67
2022/07/02 12:02:24;;;;;;;;;;;;;;;;;;5134173;27;942;-67
2022/07/02 12:04:49;;;;;;;;;;;;;;;;;;5133293;27;1972;-67
2022/07/02 12:07:15;;;;;;;;;;;;;;;;;;5132817;27;891;-67
2022/07/02 12:09:40;;;;;;;;;;;;;;;;;;5133668;27;844;-67
2022/07/02 12:12:05;;;;;;;;;;;;;;;;;;5115542;27;1328;-67
2022/07/02 12:14:31;;;;;;;;;;;;;;;;;;5133127;27;1002;-67
2022/07/02 12:16:56;;;;;;;;;;;;;;;;;;5134017;27;946;-67
2022/07/02 12:19:28;;;;;;;;;;;;;;;;;;5132409;27;641;-67
2022/07/02 12:21:53;;;;;;;;;;;;;;;;;;5132201;27;836;-67
2022/07/02 12:24:29;;;;;;;;;;;;;;;;;;5132515;27;1963;-67
2022/07/02 12:26:56;;;;;;;;;;;;;;;;;;5133578;27;836;-67
2022/07/02 12:32:11;;;;;;;;;;;;;;;;;;5134477;27;642;-67
2022/07/02 12:34:41;;;;;;;;;;;;;;;;;;5133010;27;852;-67
2022/07/02 12:37:07;;;;;;;;;;;;;;;;;;5133389;27;1127;-67
2022/07/02 12:39:38;;;;;;;;;;;;;;;;;;5132986;27;891;-67
2022/07/02 12:42:17;;;;;;;;;;;;;;;;;;5133210;27;887;-67
2022/07/02 12:45:01;;;;;;;;;;;;;;;;;;5132451;27;1917;-67
2022/07/02 12:47:29;;;;;;;;;;;;;;;;;;5133355;27;899;-67
2022/07/02 12:50:05;;;;;;;;;;;;;;;;;;5132397;27;919;-67
2022/07/02 12:52:30;;;;;;;;;;;;;;;;;;5132731;27;804;-67
2022/07/02 12:54:56;;;;;;;;;;;;;;;;;;5131897;27;828;-67
2022/07/02 12:57:23;;;;;;;;;;;;;;;;;;5132875;27;851;-67
2022/07/02 12:59:49;;;;;;;;;;;;;;;;;;5132166;27;840;-67
2022/07/02 13:02:25;;;;;;;;;;;;;;;;;;5133275;27;820;-67
2022/07/02 13:04:51;;;;;;;;;;;;;;;;;;5132479;27;1893;-67
2022/07/02 13:07:16;;;;;;;;;;;;;;;;;;5131369;27;898;-67
2022/07/02 13:09:42;;;;;;;;;;;;;;;;;;5132465;27;820;-68
2022/07/02 13:12:10;;;;;;;;;;;;;;;;;;5132412;27;1238;-68
2022/07/02 13:14:35;;;;;;;;;;;;;;;;;;5132774;27;922;-67
2022/07/02 13:17:01;;;;;;;;;;;;;;;;;;5132029;27;895;-68
2022/07/02 13:19:26;;;;;;;;;;;;;;;;;;5132546;27;1046;-67
2022/07/02 13:21:51;;;;;;;;;;;;;;;;;;5133327;27;828;-67
2022/07/02 13:24:16;;;;;;;;;;;;;;;;;;5133839;27;1901;-68
2022/07/02 13:26:41;;;;;;;;;;;;;;;;;;5132736;27;766;-68
2022/07/02 13:29:07;;;;;;;;;;;;;;;;;;5133411;27;1026;-67
2022/07/02 13:31:32;;;;;;;;;;;;;;;;;;5132826;27;808;-68
2022/07/02 13:33:58;;;;;;;;;;;;;;;;;;5133016;27;848;-67
2022/07/02 13:36:24;;;;;;;;;;;;;;;;;;5131849;27;1206;-68
2022/07/02 13:38:49;;;;;;;;;;;;;;;;;;5131810;27;978;-67
2022/07/02 13:41:14;;;;;;;;;;;;;;;;;;5132672;27;883;-68
2022/07/02 13:43:39;;;;;;;;;;;;;;;;;;5131923;27;867;-68
2022/07/02 13:46:04;;;;;;;;;;;;;;;;;;5131236;27;1902;-67
2022/07/02 13:48:30;;;;;;;;;;;;;;;;;;5132024;28;912;-67
2022/07/02 13:50:55;;;;;;;;;;;;;;;;;;5130657;27;2359;-68
2022/07/02 13:53:20;;;;;;;;;;;;;;;;;;5131240;27;832;-68
2022/07/02 13:55:45;;;;;;;;;;;;;;;;;;5131929;28;801;-67
2022/07/02 13:58:11;;;;;;;;;;;;;;;;;;5132288;28;1085;-68
2022/07/02 14:00:37;;;;;;;;;;;;;;;;;;5113453;28;1372;-67
2022/07/02 14:03:03;;;;;;;;;;;;;;;;;;5131978;27;844;-68
2022/07/02 14:05:28;;;;;;;;;;;;;;;;;;5133203;27;1959;-68
2022/07/02 14:07:53;;;;;;;;;;;;;;;;;;5131975;27;916;-67
2022/07/02 14:10:18;;;;;;;;;;;;;;;;;;5132609;27;836;-67
2022/07/02 14:12:44;;;;;;;;;;;;;;;;;;5132375;28;808;-67
2022/07/02 14:15:09;;;;;;;;;;;;;;;;;;5133182;28;817;-68
2022/07/02 14:17:34;;;;;;;;;;;;;;;;;;5131043;28;845;-68
2022/07/02 14:20:00;;;;;;;;;;;;;;;;;;5132852;27;887;-67
2022/07/02 14:22:29;;;;;;;;;;;;;;;;;;5131375;28;1233;-67
2022/07/02 14:24:54;;;;;;;;;;;;;;;;;;5132698;27;1945;-67
2022/07/02 14:27:19;;;;;;;;;;;;;;;;;;5132820;28;872;-67
2022/07/02 14:29:45;;;;;;;;;;;;;;;;;;5132135;28;972;-68
2022/07/02 14:32:10;;;;;;;;;;;;;;;;;;5132990;27;848;-68
2022/07/02 14:34:36;;;;;;;;;;;;;;;;;;5130681;28;904;-68
2022/07/02 14:37:01;;;;;;;;;;;;;;;;;;5131556;28;1291;-68
2022/07/02 14:39:26;;;;;;;;;;;;;;;;;;5130522;28;1344;-68
2022/07/02 14:41:51;;;;;;;;;;;;;;;;;;5131894;28;824;-68
2022/07/02 14:44:17;;;;;;;;;;;;;;;;;;5131880;27;1905;-68
2022/07/02 14:46:42;;;;;;;;;;;;;;;;;;5131429;27;1018;-68
2022/07/02 14:49:07;;;;;;;;;;;;;;;;;;5136592;27;923;-68
2022/07/02 14:51:33;;;;;;;;;;;;;;;;;;5134937;27;764;-67
2022/07/02 14:53:58;;;;;;;;;;;;;;;;;;5135306;27;829;-67
2022/07/02 14:56:24;;;;;;;;;;;;;;;;;;5135616;27;776;-67
2022/07/02 14:58:49;;;;;;;;;;;;;;;;;;5136062;27;935;-67
2022/07/02 15:01:14;;;;;;;;;;;;;;;;;;5135277;27;877;-67
2022/07/02 15:03:40;;;;;;;;;;;;;;;;;;5135674;27;864;-67
2022/07/02 15:06:05;;;;;;;;;;;;;;;;;;5136290;27;1902;-67
2022/07/02 15:08:31;;;;;;;;;;;;;;;;;;5135807;27;926;-67
2022/07/02 15:10:56;;;;;;;;;;;;;;;;;;5135664;27;895;-68
2022/07/02 15:13:21;;;;;;;;;;;;;;;;;;5135868;27;840;-68
2022/07/02 15:18:41;;;;;;;;;;;;;;;;;;5129692;27;1245;-67
2022/07/02 15:21:20;;;;;;;;;;;;;;;;;;5133942;27;777;-67
2022/07/02 15:23:49;;;;;;;;;;;;;;;;;;5134458;27;844;-67
2022/07/02 15:26:16;;;;;;;;;;;;;;;;;;5133236;27;1894;-67
2022/07/02 15:28:45;;;;;;;;;;;;;;;;;;5134667;27;1041;-68
2022/07/02 15:31:11;;;;;;;;;;;;;;;;;;5134670;27;863;-68
2022/07/02 15:33:38;;;;;;;;;;;;;;;;;;5135015;27;631;-67
2022/07/02 15:36:04;;;;;;;;;;;;;;;;;;5134733;27;1281;-67
2022/07/02 15:38:29;;;;;;;;;;;;;;;;;;5135637;27;908;-67
2022/07/02 15:40:55;;;;;;;;;;;;;;;;;;5134153;27;930;-67
2022/07/02 15:43:20;;;;;;;;;;;;;;;;;;5135064;27;812;-67
2022/07/02 15:45:45;;;;;;;;;;;;;;;;;;5134205;27;1971;-67
2022/07/02 15:48:12;;;;;;;;;;;;;;;;;;5134504;27;930;-67
2022/07/02 15:50:37;;;;;;;;;;;;;;;;;;5134480;27;847;-67
2022/07/02 15:53:07;;;;;;;;;;;;;;;;;;5133907;27;974;-67
2022/07/02 15:55:35;;;;;;;;;;;;;;;;;;5132656;27;1636;-67
2022/07/02 15:58:03;;;;;;;;;;;;;;;;;;5134155;27;859;-67
2022/07/02 16:00:30;;;;;;;;;;;;;;;;;;5134122;27;844;-67
2022/07/02 16:02:57;;;;;;;;;;;;;;;;;;5133847;27;899;-67
2022/07/02 16:05:23;;;;;;;;;;;;;;;;;;5133896;27;1877;-67
2022/07/02 16:07:49;;;;;;;;;;;;;;;;;;5133496;27;927;-67
2022/07/02 16:10:15;;;;;;;;;;;;;;;;;;5133634;27;844;-67
2022/07/02 16:12:42;;;;;;;;;;;;;;;;;;5133695;27;847;-67
2022/07/02 16:15:08;;;;;;;;;;;;;;;;;;5133841;27;824;-67
2022/07/02 16:17:36;;;;;;;;;;;;;;;;;;5133397;27;837;-67
2022/07/02 16:20:03;;;;;;;;;;;;;;;;;;5133488;27;864;-67
2022/07/02 16:22:29;;;;;;;;;;;;;;;;;;5134014;27;935;-67
2022/07/02 16:24:54;;;;;;;;;;;;;;;;;;5133461;27;1901;-67
2022/07/02 16:27:19;;;;;;;;;;;;;;;;;;5133235;27;995;-67
2022/07/02 16:29:44;;;;;;;;;;;;;;;;;;5133735;27;1001;-67
2022/07/02 16:32:13;;;;;;;;;;;;;;;;;;5133986;27;912;-67
2022/07/02 16:34:44;;;;;;;;;;;;;;;;;;5134219;27;780;-67
2022/07/02 16:37:14;;;;;;;;;;;;;;;;;;5133940;27;1071;-67
2022/07/02 16:39:42;;;;;;;;;;;;;;;;;;5133729;27;848;-67
2022/07/02 16:42:07;;;;;;;;;;;;;;;;;;5133949;27;982;-67
2022/07/02 16:44:33;;;;;;;;;;;;;;;;;;5133947;27;1961;-67
2022/07/02 16:46:59;;;;;;;;;;;;;;;;;;5134319;27;817;-67
2022/07/02 16:49:31;;;;;;;;;;;;;;;;;;5133750;27;1061;-67
2022/07/02 16:51:58;;;;;;;;;;;;;;;;;;5133563;27;1005;-68
2022/07/02 16:54:24;;;;;;;;;;;;;;;;;;5132754;27;1003;-67
2022/07/02 16:56:49;;;;;;;;;;;;;;;;;;5132676;27;1126;-67
2022/07/02 16:59:17;;;;;;;;;;;;;;;;;;5131612;27;994;-67
2022/07/02 17:01:42;;;;;;;;;;;;;;;;;;5131532;27;1420;-67
2022/07/02 17:04:08;;;;;;;;;;;;;;;;;;5132809;27;1902;-67
2022/07/02 17:06:33;;;;;;;;;;;;;;;;;;5132734;27;1056;-67
2022/07/02 17:08:59;;;;;;;;;;;;;;;;;;5133063;27;895;-67
2022/07/02 17:11:30;;;;;;;;;;;;;;;;;;5132519;27;907;-67
2022/07/02 17:13:59;;;;;;;;;;;;;;;;;;5132508;27;884;-67
2022/07/02 17:16:25;;;;;;;;;;;;;;;;;;5132390;27;840;-67
2022/07/02 17:18:51;;;;;;;;;;;;;;;;;;5132295;27;995;-67
2022/07/02 17:21:16;;;;;;;;;;;;;;;;;;5132589;27;836;-67